createdAt,value
2022-12-13T00:02:09.083Z,8.88
2022-12-13T00:04:36.939Z,8.90
2022-12-13T00:07:10.067Z,9.68
2022-12-13T00:09:40.006Z,9.18
2022-12-13T00:12:10.342Z,8.70
2022-12-13T00:14:46.089Z,8.55
2022-12-13T00:17:16.190Z,8.70
2022-12-13T00:19:49.325Z,8.73
2022-12-13T00:22:28.228Z,9.05
2022-12-13T00:24:58.381Z,9.65
2022-12-13T00:27:32.016Z,8.55
2022-12-13T00:30:00.374Z,8.97
2022-12-13T00:32:37.570Z,8.70
2022-12-13T00:35:05.665Z,9.10
2022-12-13T00:37:38.574Z,9.20
2022-12-13T00:40:12.360Z,8.43
2022-12-13T00:45:15.302Z,9.00
2022-12-13T00:47:46.783Z,8.27
2022-12-13T00:50:19.819Z,9.45
2022-12-13T00:52:53.153Z,9.75
2022-12-13T00:55:21.311Z,9.38
2022-12-13T00:57:52.276Z,9.00
2022-12-13T01:00:25.638Z,8.80
2022-12-13T01:02:59.257Z,8.55
2022-12-13T01:06:12.962Z,9.32
2022-12-13T01:08:27.635Z,9.55
2022-12-13T01:10:57.991Z,9.35
2022-12-13T01:13:27.846Z,8.68
2022-12-13T01:16:00.090Z,8.52
2022-12-13T01:18:30.512Z,8.73
2022-12-13T01:21:07.681Z,9.32
2022-12-13T01:23:38.065Z,8.95
2022-12-13T01:26:07.170Z,8.38
2022-12-13T01:28:38.137Z,7.80
2022-12-13T01:31:09.442Z,8.70
2022-12-13T01:33:38.915Z,8.25
2022-12-13T01:36:16.057Z,10.00
2022-12-13T01:38:50.090Z,9.05
2022-12-13T01:41:21.051Z,9.20
2022-12-13T01:44:01.437Z,8.38
2022-12-13T01:46:31.415Z,8.65
2022-12-13T01:49:19.763Z,8.32
2022-12-13T01:52:07.649Z,9.02
2022-12-13T01:54:46.696Z,8.70
2022-12-13T01:57:17.743Z,8.45
2022-12-13T01:59:53.263Z,8.52
2022-12-13T02:02:29.139Z,9.20
2022-12-13T02:05:11.443Z,8.48
2022-12-13T02:07:42.008Z,8.77
2022-12-13T02:10:10.905Z,8.70
2022-12-13T02:12:43.886Z,8.80
2022-12-13T02:15:15.241Z,8.50
2022-12-13T02:17:52.629Z,8.90
2022-12-13T02:20:58.100Z,9.75
2022-12-13T02:23:58.974Z,8.93
2022-12-13T02:27:30.416Z,8.70
2022-12-13T02:30:20.926Z,8.68
2022-12-13T02:33:03.481Z,8.40
2022-12-13T02:35:58.001Z,8.55
2022-12-13T02:38:30.912Z,8.98
2022-12-13T02:41:14.635Z,8.30
2022-12-13T02:44:01.481Z,9.10
2022-12-13T02:46:40.591Z,8.80
2022-12-13T02:49:16.339Z,8.52
2022-12-13T02:54:17.506Z,8.25
2022-12-13T02:57:03.331Z,8.32
2022-12-13T02:59:43.315Z,8.63
2022-12-13T03:02:30.762Z,8.50
2022-12-13T03:05:48.424Z,8.20
2022-12-13T03:08:47.723Z,7.78
2022-12-13T03:11:20.146Z,8.50
2022-12-13T03:13:59.860Z,8.65
2022-12-13T03:16:51.680Z,8.23
2022-12-13T03:19:20.786Z,7.78
2022-12-13T03:21:50.024Z,8.70
2022-12-13T03:24:22.742Z,8.38
2022-12-13T03:26:51.899Z,7.90
2022-12-13T03:29:24.395Z,9.82
2022-12-13T03:31:53.707Z,7.90
2022-12-13T03:34:24.138Z,8.73
2022-12-13T03:36:56.922Z,8.55
2022-12-13T03:39:34.405Z,8.77
2022-12-13T03:42:06.356Z,8.85
2022-12-13T03:44:38.449Z,8.60
2022-12-13T03:47:06.482Z,7.63
2022-12-13T03:49:37.210Z,9.05
2022-12-13T03:52:12.644Z,8.93
2022-12-13T03:54:48.172Z,8.48
2022-12-13T03:57:16.349Z,9.02
2022-12-13T03:59:44.602Z,8.05
2022-12-13T04:02:31.174Z,8.35
2022-12-13T04:05:05.377Z,9.02
2022-12-13T04:07:36.163Z,8.85
2022-12-13T04:10:26.252Z,9.27
2022-12-13T04:13:15.480Z,8.93
2022-12-13T04:15:49.588Z,8.38
2022-12-13T04:18:28.227Z,8.48
2022-12-13T04:20:58.301Z,8.60
2022-12-13T04:23:28.827Z,7.85
2022-12-13T04:26:03.778Z,8.63
2022-12-13T04:28:36.240Z,8.50
2022-12-13T04:31:04.728Z,8.05
2022-12-13T04:33:35.815Z,8.48
2022-12-13T04:36:06.549Z,8.52
2022-12-13T04:38:38.265Z,8.27
2022-12-13T04:41:15.637Z,8.15
2022-12-13T04:43:52.637Z,8.77
2022-12-13T04:46:24.939Z,7.63
2022-12-13T04:48:54.787Z,8.45
2022-12-13T04:51:25.349Z,9.40
2022-12-13T04:54:23.442Z,7.82
2022-12-13T04:56:53.999Z,8.90
2022-12-13T04:59:21.672Z,7.47
2022-12-13T05:01:57.659Z,8.43
2022-12-13T05:04:32.614Z,8.47
2022-12-13T05:07:03.917Z,8.85
2022-12-13T05:09:32.908Z,9.25
2022-12-13T05:12:21.907Z,8.32
2022-12-13T05:14:53.490Z,7.85
2022-12-13T05:17:31.851Z,8.32
2022-12-13T05:20:00.823Z,8.95
2022-12-13T05:22:33.227Z,9.02
2022-12-13T05:25:06.952Z,7.70
2022-12-13T05:30:10.394Z,8.13
2022-12-13T05:32:43.448Z,8.40
2022-12-13T05:35:21.824Z,8.05
2022-12-13T05:37:58.555Z,7.93
2022-12-13T05:40:34.608Z,8.18
2022-12-13T05:43:21.447Z,8.20
2022-12-13T05:45:52.733Z,8.63
2022-12-13T05:48:29.041Z,7.82
2022-12-13T05:51:10.859Z,8.23
2022-12-13T05:53:53.244Z,7.95
2022-12-13T05:56:26.477Z,8.02
2022-12-13T05:59:00.330Z,7.83
2022-12-13T06:01:28.232Z,7.57
2022-12-13T06:04:00.599Z,6.60
2022-12-13T06:06:39.274Z,8.90
2022-12-13T06:09:07.760Z,9.10
2022-12-13T06:11:43.182Z,8.10
2022-12-13T06:14:22.367Z,6.95
2022-12-13T06:16:54.677Z,7.55
2022-12-13T06:19:23.468Z,8.55
2022-12-13T06:21:58.064Z,7.63
2022-12-13T06:24:27.464Z,7.65
2022-12-13T06:26:54.801Z,7.65
2022-12-13T06:29:25.550Z,7.43
2022-12-13T06:32:03.075Z,7.63
2022-12-13T06:34:34.552Z,7.80
2022-12-13T06:37:08.237Z,8.13
2022-12-13T06:39:41.718Z,7.68
2022-12-13T06:42:22.338Z,7.72
2022-12-13T06:44:56.472Z,7.10
2022-12-13T06:50:04.921Z,8.40
2022-12-13T06:55:11.591Z,7.88
2022-12-13T06:57:40.950Z,7.43
2022-12-13T07:00:12.941Z,7.50
2022-12-13T07:02:47.089Z,7.60
2022-12-13T07:05:25.035Z,6.93
2022-12-13T07:07:58.159Z,7.32
2022-12-13T07:10:28.435Z,6.85
2022-12-13T07:12:58.944Z,7.32
2022-12-13T07:15:31.660Z,7.70
2022-12-13T07:18:00.245Z,7.57
2022-12-13T07:20:32.476Z,7.75
2022-12-13T07:23:05.447Z,7.47
2022-12-13T07:25:38.021Z,7.67
2022-12-13T07:28:11.081Z,7.40
2022-12-13T07:30:40.637Z,7.50
2022-12-13T07:33:13.139Z,7.13
2022-12-13T07:36:03.524Z,7.57
2022-12-13T07:38:31.360Z,7.32
2022-12-13T07:41:01.405Z,7.93
2022-12-13T07:43:35.118Z,7.35
2022-12-13T07:46:06.831Z,7.20
2022-12-13T07:48:43.917Z,7.05
2022-12-13T07:51:27.412Z,6.95
2022-12-13T07:53:58.392Z,8.07
2022-12-13T07:56:32.055Z,6.78
2022-12-13T07:59:07.234Z,6.85
2022-12-13T08:01:43.251Z,7.97
2022-12-13T08:04:21.453Z,7.88
2022-12-13T08:06:57.347Z,7.38
2022-12-13T08:09:37.030Z,8.07
2022-12-13T08:12:10.189Z,8.20
2022-12-13T08:14:48.907Z,6.40
2022-12-13T08:17:31.143Z,8.23
2022-12-13T08:20:05.264Z,7.93
2022-12-13T08:22:49.441Z,7.57
2022-12-13T08:25:23.175Z,7.32
2022-12-13T08:28:01.924Z,6.95
2022-12-13T08:30:39.212Z,6.43
2022-12-13T08:33:22.090Z,6.93
2022-12-13T08:35:54.203Z,8.60
2022-12-13T08:38:34.804Z,9.00
2022-12-13T08:41:15.524Z,6.55
2022-12-13T08:43:55.368Z,7.10
2022-12-13T08:46:23.367Z,7.78
2022-12-13T08:48:54.730Z,7.30
2022-12-13T08:51:29.567Z,6.53
2022-12-13T08:54:10.642Z,7.57
2022-12-13T08:56:43.685Z,8.10
2022-12-13T08:59:12.283Z,7.20
2022-12-13T09:01:47.748Z,7.28
2022-12-13T09:04:31.715Z,6.95
2022-12-13T09:07:05.390Z,6.68
2022-12-13T09:09:41.627Z,8.13
2022-12-13T09:12:30.416Z,7.22
2022-12-13T09:15:23.003Z,8.68
2022-12-13T09:17:56.646Z,7.82
2022-12-13T09:20:42.015Z,6.80
2022-12-13T09:23:23.338Z,7.05
2022-12-13T09:26:05.405Z,7.82
2022-12-13T09:28:35.484Z,7.97
2022-12-13T09:31:13.791Z,7.13
2022-12-13T09:33:45.536Z,8.65
2022-12-13T09:36:22.067Z,6.93
2022-12-13T09:38:55.975Z,6.95
2022-12-13T09:41:40.741Z,6.95
2022-12-13T09:44:32.138Z,5.78
2022-12-13T09:47:15.890Z,7.20
2022-12-13T09:50:15.132Z,7.55
2022-12-13T09:52:51.579Z,7.53
2022-12-13T09:55:40.182Z,6.07
2022-12-13T09:58:29.096Z,6.65
2022-12-13T10:01:03.420Z,7.60
2022-12-13T10:03:33.401Z,6.90
2022-12-13T10:06:23.482Z,8.18
2022-12-13T10:09:01.387Z,6.72
2022-12-13T10:11:35.474Z,6.97
2022-12-13T10:14:15.876Z,7.15
2022-12-13T10:16:51.773Z,7.07
2022-12-13T10:19:30.217Z,7.72
2022-12-13T10:22:04.916Z,5.82
2022-12-13T10:25:00.985Z,6.38
2022-12-13T10:27:38.214Z,7.97
2022-12-13T10:30:16.104Z,7.57
2022-12-13T10:32:57.708Z,6.05
2022-12-13T10:35:34.680Z,6.20
2022-12-13T10:38:08.601Z,5.90
2022-12-13T10:40:45.683Z,7.85
2022-12-13T10:43:13.825Z,7.10
2022-12-13T10:46:01.925Z,7.28
2022-12-13T10:48:38.768Z,5.95
2022-12-13T10:51:13.257Z,6.90
2022-12-13T10:53:46.927Z,7.78
2022-12-13T10:56:23.828Z,7.13
2022-12-13T10:59:20.943Z,6.75
2022-12-13T11:01:48.836Z,7.07
2022-12-13T11:04:35.106Z,5.93
2022-12-13T11:07:32.872Z,7.07
2022-12-13T11:10:39.761Z,7.00
2022-12-13T11:13:10.881Z,7.28
2022-12-13T11:15:39.040Z,7.25
2022-12-13T11:18:21.382Z,6.88
2022-12-13T11:21:02.693Z,6.90
2022-12-13T11:23:38.156Z,6.95
2022-12-13T11:26:15.130Z,6.72
2022-12-13T11:28:48.455Z,7.82
2022-12-13T11:31:33.784Z,7.68
2022-12-13T11:34:10.713Z,9.47
2022-12-13T11:36:58.566Z,7.25
2022-12-13T11:39:29.500Z,6.28
2022-12-13T11:42:04.442Z,7.38
2022-12-13T11:44:53.858Z,7.03
2022-12-13T11:47:44.546Z,6.28
2022-12-13T11:50:39.681Z,6.75
2022-12-13T11:53:38.537Z,5.88
2022-12-13T11:56:23.954Z,6.07
2022-12-13T11:59:14.555Z,6.32
2022-12-13T12:01:55.197Z,6.50
2022-12-13T12:04:35.763Z,5.85
2022-12-13T12:07:31.977Z,7.45
2022-12-13T12:10:24.771Z,6.22
2022-12-13T12:13:05.038Z,6.93
2022-12-13T12:15:41.880Z,5.18
2022-12-13T12:18:19.788Z,6.45
2022-12-13T12:21:16.466Z,6.50
2022-12-13T12:24:02.483Z,7.50
2022-12-13T12:26:40.808Z,6.90
2022-12-13T12:29:22.962Z,7.57
2022-12-13T12:32:08.974Z,6.88
2022-12-13T12:34:47.301Z,6.20
2022-12-13T12:37:25.662Z,6.03
2022-12-13T12:40:05.385Z,6.57
2022-12-13T12:43:14.438Z,6.82
2022-12-13T12:45:57.841Z,6.75
2022-12-13T12:48:55.101Z,7.57
2022-12-13T12:51:56.216Z,6.03
2022-12-13T12:55:05.924Z,7.35
2022-12-13T12:58:09.648Z,7.47
2022-12-13T13:00:51.395Z,8.10
2022-12-13T13:03:30.561Z,6.40
2022-12-13T13:06:11.606Z,7.25
2022-12-13T13:09:09.206Z,7.05
2022-12-13T13:11:44.278Z,6.22
2022-12-13T13:14:27.481Z,6.60
2022-12-13T13:17:17.129Z,6.97
2022-12-13T13:20:12.334Z,6.00
2022-12-13T13:22:42.952Z,6.60
2022-12-13T13:25:31.286Z,6.03
2022-12-13T13:28:19.521Z,6.97
2022-12-13T13:31:08.286Z,6.82
2022-12-13T13:33:46.995Z,7.20
2022-12-13T13:36:41.476Z,6.78
2022-12-13T13:39:19.486Z,6.72
2022-12-13T13:41:55.846Z,5.65
2022-12-13T13:44:40.823Z,4.93
2022-12-13T13:47:21.152Z,6.63
2022-12-13T13:50:15.927Z,7.43
2022-12-13T13:53:04.515Z,6.45
2022-12-13T13:56:00.138Z,6.65
2022-12-13T13:59:03.150Z,7.15
2022-12-13T14:02:00.958Z,5.97
2022-12-13T14:04:57.969Z,6.15
2022-12-13T14:07:38.620Z,7.10
2022-12-13T14:10:32.500Z,5.85
2022-12-13T14:13:15.807Z,5.72
2022-12-13T14:15:53.530Z,6.20
2022-12-13T14:18:42.605Z,6.38
2022-12-13T14:21:54.726Z,6.30
2022-12-13T14:24:46.648Z,8.85
2022-12-13T14:27:47.486Z,6.18
2022-12-13T14:30:27.948Z,6.45
2022-12-13T14:33:06.141Z,5.07
2022-12-13T14:35:58.155Z,6.47
2022-12-13T14:38:37.327Z,7.10
2022-12-13T14:41:21.212Z,6.85
2022-12-13T14:43:53.618Z,6.03
2022-12-13T14:46:27.380Z,4.85
2022-12-13T14:49:00.784Z,7.20
2022-12-13T14:51:37.670Z,6.13
2022-12-13T14:54:25.665Z,6.47
2022-12-13T14:57:03.624Z,6.65
2022-12-13T14:59:33.465Z,6.53
2022-12-13T15:02:04.467Z,6.28
2022-12-13T15:04:37.326Z,6.63
2022-12-13T15:07:15.461Z,6.17
2022-12-13T15:09:47.729Z,6.60
2022-12-13T15:12:25.253Z,7.45
2022-12-13T15:15:10.178Z,5.68
2022-12-13T15:17:42.464Z,6.25
2022-12-13T15:20:33.453Z,8.00
2022-12-13T15:23:48.781Z,6.15
2022-12-13T15:26:30.204Z,6.10
2022-12-13T15:29:11.156Z,5.88
2022-12-13T15:31:42.876Z,5.45
2022-12-13T15:34:30.351Z,5.97
2022-12-13T15:37:06.604Z,6.18
2022-12-13T15:39:48.141Z,5.85
2022-12-13T15:42:21.915Z,6.28
2022-12-13T15:47:33.625Z,6.78
2022-12-13T15:50:07.577Z,6.22
2022-12-13T15:52:41.415Z,6.45
2022-12-13T15:55:19.374Z,7.25
2022-12-13T15:57:56.637Z,6.70
2022-12-13T16:00:30.890Z,8.43
2022-12-13T16:03:13.478Z,6.15
2022-12-13T16:05:51.899Z,7.88
2022-12-13T16:08:31.302Z,6.03
2022-12-13T16:11:02.446Z,6.70
2022-12-13T16:13:33.516Z,5.28
2022-12-13T16:16:29.013Z,7.00
2022-12-13T16:18:59.503Z,5.72
2022-12-13T16:21:29.156Z,6.15
2022-12-13T16:24:02.363Z,5.68
2022-12-13T16:26:40.646Z,7.47
2022-12-13T16:29:19.787Z,5.97
2022-12-13T16:32:01.438Z,6.05
2022-12-13T16:34:40.775Z,6.10
2022-12-13T16:37:25.630Z,6.88
2022-12-13T16:39:56.356Z,5.53
2022-12-13T16:42:27.885Z,5.93
2022-12-13T16:45:32.482Z,5.75
2022-12-13T16:47:51.044Z,5.88
2022-12-13T16:50:20.944Z,6.03
2022-12-13T16:53:03.747Z,5.32
2022-12-13T16:55:33.982Z,7.22
2022-12-13T16:58:07.537Z,6.13
2022-12-13T17:00:39.023Z,5.95
2022-12-13T17:03:14.935Z,6.28
2022-12-13T17:05:48.901Z,6.00
2022-12-13T17:08:34.847Z,6.32
2022-12-13T17:11:04.395Z,7.13
2022-12-13T17:13:37.372Z,5.90
2022-12-13T17:16:06.003Z,6.55
2022-12-13T17:18:37.177Z,6.43
2022-12-13T17:21:09.747Z,8.45
2022-12-13T17:23:37.822Z,6.13
2022-12-13T17:26:10.051Z,6.68
2022-12-13T17:28:38.765Z,8.50
2022-12-13T17:31:14.101Z,6.78
2022-12-13T17:33:48.007Z,6.70
2022-12-13T17:38:50.300Z,8.00
2022-12-13T17:41:21.579Z,8.27
2022-12-13T17:43:49.657Z,6.05
2022-12-13T17:46:18.946Z,8.40
2022-12-13T17:48:51.463Z,6.38
2022-12-13T17:51:23.535Z,6.40
2022-12-13T17:53:54.412Z,8.13
2022-12-13T17:56:25.177Z,6.13
2022-12-13T17:58:55.831Z,6.72
2022-12-13T18:01:25.349Z,6.82
2022-12-13T18:03:55.755Z,7.00
2022-12-13T18:06:27.248Z,7.25
2022-12-13T18:08:57.948Z,7.28
2022-12-13T18:11:34.878Z,7.18
2022-12-13T18:14:07.328Z,6.90
2022-12-13T18:16:39.154Z,7.63
2022-12-13T18:19:08.227Z,7.18
2022-12-13T18:21:40.136Z,6.03
2022-12-13T18:24:13.044Z,7.40
2022-12-13T18:26:44.112Z,6.90
2022-12-13T18:29:17.914Z,6.22
2022-12-13T18:31:45.818Z,6.55
2022-12-13T18:34:19.425Z,7.78
2022-12-13T18:36:47.242Z,6.18
2022-12-13T18:39:14.959Z,7.32
2022-12-13T18:41:45.571Z,7.03
2022-12-13T18:44:16.178Z,7.10
2022-12-13T18:46:46.858Z,8.15
2022-12-13T18:49:14.623Z,7.18
2022-12-13T18:51:45.411Z,8.07
2022-12-13T18:54:16.218Z,7.40
2022-12-13T18:56:47.835Z,7.00
2022-12-13T18:59:20.329Z,8.80
2022-12-13T19:01:51.245Z,7.78
2022-12-13T19:04:21.874Z,7.88
2022-12-13T19:06:49.642Z,7.50
2022-12-13T19:09:22.276Z,7.75
2022-12-13T19:11:53.949Z,6.93
2022-12-13T19:14:26.880Z,7.05
2022-12-13T19:16:55.122Z,6.80
2022-12-13T19:19:24.918Z,8.38
2022-12-13T19:21:55.264Z,8.25
2022-12-13T19:24:23.272Z,7.90
2022-12-13T19:26:56.866Z,7.85
2022-12-13T19:31:56.035Z,7.38
2022-12-13T19:34:24.014Z,8.60
2022-12-13T19:36:54.333Z,6.85
2022-12-13T19:39:22.182Z,7.88
2022-12-13T19:41:49.603Z,7.32
2022-12-13T19:44:20.609Z,7.93
2022-12-13T19:46:51.187Z,9.20
2022-12-13T19:49:23.692Z,8.48
2022-12-13T19:51:53.814Z,7.10
2022-12-13T19:54:24.837Z,7.72
2022-12-13T19:56:55.371Z,8.35
2022-12-13T19:59:25.775Z,7.55
2022-12-13T20:01:58.550Z,7.68
2022-12-13T20:04:26.391Z,7.73
2022-12-13T20:06:57.897Z,8.15
2022-12-13T20:09:26.644Z,7.40
2022-12-13T20:11:57.368Z,7.53
2022-12-13T20:14:28.300Z,8.45
2022-12-13T20:16:59.153Z,8.10
2022-12-13T20:19:32.927Z,8.35
2022-12-13T20:22:02.590Z,8.80
2022-12-13T20:24:33.650Z,8.15
2022-12-13T20:27:02.230Z,8.00
2022-12-13T20:29:32.903Z,7.72
2022-12-13T20:32:06.260Z,10.90
2022-12-13T20:34:37.222Z,8.93
2022-12-13T20:37:05.908Z,8.27
2022-12-13T20:39:33.617Z,7.97
2022-12-13T20:42:03.227Z,9.43
2022-12-13T20:44:33.838Z,8.27
2022-12-13T20:47:06.540Z,8.98
2022-12-13T20:49:36.823Z,8.90
2022-12-13T20:52:07.650Z,8.35
2022-12-13T20:54:36.236Z,8.27
2022-12-13T20:57:04.025Z,8.45
2022-12-13T20:59:32.286Z,8.23
2022-12-13T21:02:02.943Z,7.93
2022-12-13T21:04:34.243Z,8.68
2022-12-13T21:07:06.186Z,7.95
2022-12-13T21:09:39.353Z,8.25
2022-12-13T21:12:15.693Z,8.30
2022-12-13T21:14:43.445Z,8.00
2022-12-13T21:17:17.202Z,8.40
2022-12-13T21:22:16.673Z,8.38
2022-12-13T21:24:49.736Z,7.82
2022-12-13T21:27:22.241Z,8.80
2022-12-13T21:29:55.174Z,8.25
2022-12-13T21:32:26.275Z,8.60
2022-12-13T21:34:56.909Z,8.43
2022-12-13T21:37:28.139Z,8.27
2022-12-13T21:40:01.755Z,8.50
2022-12-13T21:45:02.327Z,8.63
2022-12-13T21:50:01.954Z,7.95
2022-12-13T21:52:33.840Z,8.88
2022-12-13T21:55:22.121Z,8.23
2022-12-13T21:58:13.161Z,8.40
2022-12-13T22:00:44.064Z,8.77
2022-12-13T22:03:17.095Z,8.20
2022-12-13T22:05:46.998Z,9.07
2022-12-13T22:08:17.086Z,7.55
2022-12-13T22:11:21.312Z,8.73
2022-12-13T22:13:50.356Z,8.35
2022-12-13T22:16:20.707Z,7.75
2022-12-13T22:18:56.537Z,8.60
2022-12-13T22:21:27.586Z,8.35
2022-12-13T22:23:55.906Z,8.13
2022-12-13T22:26:25.238Z,8.43
2022-12-13T22:28:54.231Z,8.30
2022-12-13T22:31:26.715Z,7.72
2022-12-13T22:34:01.191Z,8.35
2022-12-13T22:36:31.774Z,8.70
2022-12-13T22:39:00.390Z,9.13
2022-12-13T22:41:31.346Z,8.52
2022-12-13T22:43:59.523Z,8.70
2022-12-13T22:46:29.529Z,8.80
2022-12-13T22:48:58.052Z,8.75
2022-12-13T22:51:28.454Z,8.23
2022-12-13T22:53:58.783Z,8.27
2022-12-13T22:56:30.356Z,8.10
2022-12-13T22:59:01.903Z,8.73
2022-12-13T23:01:32.447Z,8.32
2022-12-13T23:04:03.610Z,7.40
2022-12-13T23:06:36.572Z,8.40
2022-12-13T23:09:07.148Z,7.85
2022-12-13T23:11:53.409Z,8.35
2022-12-13T23:14:28.240Z,7.60
2022-12-13T23:17:01.176Z,7.47
2022-12-13T23:19:49.660Z,7.88
2022-12-13T23:22:22.965Z,7.10
2022-12-13T23:24:51.600Z,7.93
2022-12-13T23:27:23.499Z,7.93
2022-12-13T23:29:51.592Z,7.32
2022-12-13T23:32:22.330Z,8.50
2022-12-13T23:34:50.129Z,9.07
2022-12-13T23:37:26.261Z,7.10
2022-12-13T23:39:54.159Z,7.38
2022-12-13T23:42:29.273Z,8.43
2022-12-13T23:44:59.813Z,8.15
2022-12-13T23:47:36.767Z,7.80
2022-12-13T23:50:07.901Z,7.80
2022-12-13T23:52:37.340Z,8.52
2022-12-13T23:55:05.508Z,8.18
2022-12-13T23:57:36.259Z,7.72
